Time;durP1;ratioP1;P1;durP2;ratioP2;P2;SDS_P1;SDS_P2;PMS_P1;PMS_P2;Temp;Humidity;BMP_temperature;BMP_pressure;BME280_temperature;BME280_humidity;BME280_pressure;Samples;Min_cycle;Max_cycle;Signal;HPM_P1;HPM_P2
2021/12/14 00:01:11;;;;;;;17.83;9.80;;;9.30;99.90;;;;;;5140324;27;20082;-76
2021/12/14 00:03:40;;;;;;;13.93;9.90;;;9.30;99.90;;;;;;5144645;27;20051;-75
2021/12/14 00:06:08;;;;;;;14.00;9.20;;;9.30;99.90;;;;;;5115604;27;20834;-75
2021/12/14 00:08:46;;;;;;;11.07;8.70;;;9.30;99.90;;;;;;5140431;27;20838;-76
2021/12/14 00:11:30;;;;;;;13.13;9.70;;;9.30;99.90;;;;;;5141913;27;20050;-77
2021/12/14 00:15:02;;;;;;;14.57;9.25;;;9.30;99.90;;;;;;5141668;27;20152;-77
2021/12/14 00:16:54;;;;;;;16.42;10.73;;;9.30;99.90;;;;;;5138021;27;20085;-77
2021/12/14 00:19:20;;;;;;;12.55;9.02;;;9.20;99.90;;;;;;5123119;27;20054;-77
2021/12/14 00:21:50;;;;;;;16.67;9.38;;;9.20;99.90;;;;;;5140304;27;20602;-75
2021/12/14 00:24:17;;;;;;;12.43;8.98;;;9.20;99.90;;;;;;5141115;27;20042;-75
2021/12/14 00:26:43;;;;;;;13.50;9.30;;;9.30;99.90;;;;;;5141581;27;20580;-75
2021/12/14 00:29:14;;;;;;;16.58;8.82;;;9.30;99.90;;;;;;5141366;27;20053;-75
2021/12/14 00:31:40;;;;;;;14.68;9.85;;;9.20;99.90;;;;;;5143368;27;20445;-75
2021/12/14 00:34:08;;;;;;;15.73;10.27;;;9.30;99.90;;;;;;5141423;27;20413;-75
2021/12/14 00:36:36;;;;;;;14.57;9.90;;;9.30;99.90;;;;;;5141293;27;20046;-75
2021/12/14 00:39:08;;;;;;;13.35;8.27;;;9.20;99.90;;;;;;5122869;27;20516;-76
2021/12/14 00:41:36;;;;;;;15.52;9.27;;;9.30;99.90;;;;;;5141460;27;20119;-75
2021/12/14 00:44:03;;;;;;;11.00;8.20;;;9.30;99.90;;;;;;5122658;27;20043;-76
2021/12/14 00:46:28;;;;;;;13.38;8.75;;;9.30;99.90;;;;;;5141308;27;20651;-75
2021/12/14 00:48:55;;;;;;;10.65;8.57;;;9.30;99.90;;;;;;5141433;27;20057;-76
2021/12/14 00:51:27;;;;;;;10.90;8.50;;;9.30;99.90;;;;;;5122370;27;20126;-76
2021/12/14 00:53:53;;;;;;;13.20;8.30;;;9.30;99.90;;;;;;5141629;27;20117;-76
2021/12/14 00:56:19;;;;;;;12.43;8.75;;;9.30;99.90;;;;;;5141148;27;20058;-76
2021/12/14 00:58:45;;;;;;;9.57;8.50;;;9.30;99.90;;;;;;5121669;27;20049;-76
2021/12/14 01:01:29;;;;;;;11.27;8.40;;;9.30;99.90;;;;;;5138186;27;20190;-75
2021/12/14 01:03:59;;;;;;;10.25;7.75;;;9.30;99.90;;;;;;5139383;27;20047;-75
2021/12/14 01:06:28;;;;;;;14.70;8.13;;;9.30;99.90;;;;;;5139430;27;20086;-75
2021/12/14 01:08:54;;;;;;;13.25;9.40;;;9.30;99.90;;;;;;5140205;27;20386;-75
2021/12/14 01:11:30;;;;;;;12.13;8.02;;;9.30;99.90;;;;;;5140624;27;20061;-75
2021/12/14 01:14:04;;;;;;;12.40;7.75;;;9.30;99.90;;;;;;5140070;27;20094;-75
2021/12/14 01:17:07;;;;;;;10.18;8.07;;;9.30;99.90;;;;;;5121848;27;20043;-75
2021/12/14 01:19:35;;;;;;;10.80;8.48;;;9.30;99.90;;;;;;5121951;27;20081;-75
2021/12/14 01:22:18;;;;;;;12.85;8.82;;;9.30;99.90;;;;;;5142873;27;20050;-75
2021/12/14 01:25:03;;;;;;;14.15;8.65;;;9.30;99.90;;;;;;5120839;27;20556;-75
2021/12/14 01:27:42;;;;;;;13.55;8.88;;;9.20;99.90;;;;;;5134292;27;20149;-75
2021/12/14 01:30:33;;;;;;;15.15;9.95;;;9.20;99.90;;;;;;5146047;27;20493;-74
2021/12/14 01:33:05;;;;;;;13.43;8.35;;;9.20;99.90;;;;;;5152368;27;20115;-74
2021/12/14 01:35:33;;;;;;;14.73;9.60;;;9.20;99.90;;;;;;5144563;27;20993;-74
2021/12/14 01:38:34;;;;;;;14.60;8.50;;;9.20;99.90;;;;;;5143721;27;20046;-74
2021/12/14 01:40:53;;;;;;;12.70;10.05;;;9.20;99.90;;;;;;5120160;27;20082;-75
2021/12/14 01:43:39;;;;;;;14.07;9.27;;;9.20;99.90;;;;;;5144124;27;20513;-75
2021/12/14 01:46:13;;;;;;;14.35;9.90;;;9.20;99.90;;;;;;5143213;27;20292;-74
2021/12/14 01:48:40;;;;;;;13.77;9.38;;;9.20;99.90;;;;;;5146996;27;20050;-74
2021/12/14 01:51:09;;;;;;;15.90;10.82;;;9.20;99.90;;;;;;5143357;27;20038;-74
2021/12/14 01:53:37;;;;;;;16.73;10.80;;;9.20;99.90;;;;;;5143737;27;20526;-74
2021/12/14 01:56:07;;;;;;;13.85;9.98;;;9.20;99.90;;;;;;5124682;27;20066;-74
2021/12/14 01:58:47;;;;;;;16.00;10.65;;;9.20;99.90;;;;;;5143847;27;20081;-75
2021/12/14 02:01:20;;;;;;;15.38;9.15;;;9.20;99.90;;;;;;5143272;27;20981;-75
2021/12/14 02:03:57;;;;;;;15.60;10.52;;;9.20;99.90;;;;;;5143970;27;20039;-74
2021/12/14 02:06:32;;;;;;;15.13;10.02;;;9.20;99.90;;;;;;5146404;27;20719;-75
2021/12/14 02:09:07;;;;;;;14.55;10.68;;;9.20;99.90;;;;;;5142749;27;20500;-75
2021/12/14 02:11:36;;;;;;;13.65;9.50;;;9.20;99.90;;;;;;5124770;27;20767;-75
2021/12/14 02:14:04;;;;;;;15.82;10.23;;;9.30;99.90;;;;;;5124370;27;20046;-75
2021/12/14 02:16:30;;;;;;;15.73;9.45;;;9.20;99.90;;;;;;5142274;27;20050;-75
2021/12/14 02:19:04;;;;;;;15.00;11.32;;;9.30;99.90;;;;;;5152658;27;20030;-75
2021/12/14 02:21:31;;;;;;;13.30;10.20;;;9.30;99.90;;;;;;5142911;27;20042;-75
2021/12/14 02:23:59;;;;;;;17.88;11.95;;;9.30;99.90;;;;;;5124042;27;20046;-74
2021/12/14 02:26:29;;;;;;;12.00;9.45;;;9.30;99.90;;;;;;5124133;27;20074;-74
2021/12/14 02:28:57;;;;;;;16.13;11.30;;;9.30;99.90;;;;;;5142780;27;20046;-75
2021/12/14 02:31:25;;;;;;;16.23;11.80;;;9.30;99.90;;;;;;5143137;27;20058;-74
2021/12/14 02:33:52;;;;;;;16.45;10.68;;;9.30;99.90;;;;;;5124230;27;20697;-75
2021/12/14 02:36:36;;;;;;;14.90;11.90;;;9.30;99.90;;;;;;5123930;27;20055;-74
2021/12/14 02:39:08;;;;;;;19.42;10.98;;;9.30;99.90;;;;;;5144363;27;20035;-74
2021/12/14 02:41:44;;;;;;;18.08;11.45;;;9.60;99.90;;;;;;5143218;27;20050;-74
2021/12/14 02:44:10;;;;;;;16.90;11.00;;;9.30;99.90;;;;;;5142810;27;20039;-74
2021/12/14 02:46:40;;;;;;;17.17;11.85;;;9.30;99.90;;;;;;5142038;27;20153;-74
2021/12/14 02:49:10;;;;;;;18.73;12.73;;;9.20;99.90;;;;;;5142823;27;20038;-74
2021/12/14 02:51:42;;;;;;;14.68;10.60;;;9.20;99.90;;;;;;5147817;27;20046;-75
2021/12/14 02:54:21;;;;;;;18.73;11.90;;;9.20;99.90;;;;;;5142605;27;20501;-74
2021/12/14 02:56:50;;;;;;;15.75;11.30;;;9.20;99.90;;;;;;5142500;27;20057;-74
2021/12/14 02:59:20;;;;;;;16.65;11.00;;;9.20;99.90;;;;;;5141908;27;20054;-74
2021/12/14 03:01:48;;;;;;;18.00;12.20;;;9.20;99.90;;;;;;5134728;27;20047;-75
2021/12/14 03:04:14;;;;;;;19.65;13.55;;;9.20;99.90;;;;;;5137332;27;20061;-74
2021/12/14 03:06:48;;;;;;;25.75;12.02;;;9.10;99.90;;;;;;5135710;27;20536;-74
2021/12/14 03:09:38;;;;;;;17.13;10.93;;;9.10;99.90;;;;;;5142682;27;20097;-74
2021/12/14 03:12:12;;;;;;;22.63;12.32;;;9.00;99.90;;;;;;5138682;27;20065;-74
2021/12/14 03:14:39;;;;;;;21.65;11.75;;;9.00;99.90;;;;;;5133682;27;20451;-75
2021/12/14 03:17:05;;;;;;;20.60;13.63;;;9.00;99.90;;;;;;5147438;27;20050;-74
2021/12/14 03:19:31;;;;;;;21.02;12.98;;;9.00;99.90;;;;;;5141672;27;20055;-74
2021/12/14 03:21:57;;;;;;;18.27;13.15;;;9.00;99.90;;;;;;5146253;27;20050;-74
2021/12/14 03:24:23;;;;;;;18.33;12.50;;;9.00;99.90;;;;;;5142106;27;20042;-74
2021/12/14 03:26:52;;;;;;;21.80;13.48;;;9.00;99.90;;;;;;5141684;27;20532;-75
2021/12/14 03:29:29;;;;;;;21.38;12.88;;;8.90;99.90;;;;;;5124364;27;20526;-74
2021/12/14 03:31:59;;;;;;;17.38;11.75;;;9.00;99.90;;;;;;5121380;27;20134;-74
2021/12/14 03:34:29;;;;;;;17.00;11.27;;;9.00;99.90;;;;;;5141277;27;20775;-74
2021/12/14 03:37:03;;;;;;;19.30;12.68;;;8.90;99.90;;;;;;5122562;27;20054;-75
2021/12/14 03:39:33;;;;;;;19.90;12.93;;;9.00;99.90;;;;;;5140832;27;20493;-75
2021/12/14 03:42:15;;;;;;;17.02;12.23;;;9.00;99.90;;;;;;5141537;27;20094;-74
2021/12/14 03:44:45;;;;;;;20.13;13.75;;;8.90;99.90;;;;;;5122550;27;20078;-75
2021/12/14 03:47:17;;;;;;;22.13;13.07;;;9.00;99.90;;;;;;5143713;27;20069;-75
2021/12/14 03:49:50;;;;;;;20.25;13.07;;;9.00;99.90;;;;;;5140887;27;20146;-74
2021/12/14 03:52:22;;;;;;;21.17;14.15;;;9.00;99.90;;;;;;5141503;27;20099;-74
2021/12/14 03:54:47;;;;;;;18.48;13.40;;;9.00;99.90;;;;;;5140999;27;20140;-74
2021/12/14 03:57:13;;;;;;;22.83;14.07;;;9.00;99.90;;;;;;5140293;27;20122;-75
2021/12/14 03:59:39;;;;;;;20.63;14.63;;;9.00;99.90;;;;;;5141047;27;20454;-74
2021/12/14 04:02:08;;;;;;;23.85;13.55;;;9.00;99.90;;;;;;5120456;27;20038;-74
2021/12/14 04:04:43;;;;;;;26.10;15.75;;;9.00;99.90;;;;;;5139000;27;20042;-74
2021/12/14 04:07:12;;;;;;;25.40;15.13;;;9.00;99.90;;;;;;5138390;27;20062;-74
2021/12/14 04:09:39;;;;;;;20.08;12.18;;;9.00;99.90;;;;;;5137982;27;20058;-74
2021/12/14 04:12:10;;;;;;;18.80;13.52;;;9.00;99.90;;;;;;5138939;27;20070;-75
2021/12/14 04:14:42;;;;;;;20.95;13.52;;;9.00;99.90;;;;;;5120096;27;20051;-73
2021/12/14 04:17:11;;;;;;;24.45;13.82;;;9.00;99.90;;;;;;5138949;27;20045;-74
2021/12/14 04:19:39;;;;;;;17.83;12.90;;;9.00;99.90;;;;;;5138656;27;20042;-74
2021/12/14 04:22:12;;;;;;;26.38;14.77;;;9.00;99.90;;;;;;5121624;27;20141;-74
2021/12/14 04:24:40;;;;;;;22.23;13.73;;;9.00;99.90;;;;;;5120264;27;20058;-72
2021/12/14 04:27:10;;;;;;;21.58;15.30;;;9.00;99.90;;;;;;5119546;27;20054;-74
2021/12/14 04:29:36;;;;;;;20.27;13.23;;;9.00;99.90;;;;;;5119501;27;20069;-74
2021/12/14 04:32:04;;;;;;;26.13;13.55;;;9.00;99.90;;;;;;5120095;27;20684;-74
2021/12/14 04:34:31;;;;;;;23.70;14.90;;;9.00;99.90;;;;;;5121173;27;20134;-74
2021/12/14 04:36:58;;;;;;;22.05;14.50;;;9.00;99.90;;;;;;5139931;27;20560;-74
2021/12/14 04:53:11;;;;;;;22.17;14.40;;;9.00;99.90;;;;;;5135080;27;20139;-74
2021/12/14 04:55:40;;;;;;;26.13;14.45;;;9.00;99.90;;;;;;5140330;27;20802;-75
2021/12/14 04:58:06;;;;;;;24.98;14.88;;;9.10;99.90;;;;;;5140100;27;20039;-74
2021/12/14 05:00:38;;;;;;;25.33;15.75;;;9.10;99.90;;;;;;5140413;27;20049;-74
2021/12/14 05:03:13;;;;;;;20.67;14.57;;;9.10;99.90;;;;;;5140984;27;20046;-75
2021/12/14 05:05:46;;;;;;;19.88;15.02;;;9.10;99.90;;;;;;5140169;27;20038;-75
2021/12/14 05:11:00;;;;;;;20.00;13.20;;;9.10;99.90;;;;;;5139816;27;20046;-74
2021/12/14 05:13:29;;;;;;;22.20;14.00;;;9.10;99.90;;;;;;5121646;27;20055;-74
2021/12/14 05:15:56;;;;;;;19.00;13.95;;;9.10;99.90;;;;;;5140012;27;20448;-74
2021/12/14 05:18:23;;;;;;;27.13;14.05;;;9.10;99.90;;;;;;5139543;27;20073;-74
2021/12/14 05:20:50;;;;;;;21.00;15.95;;;9.10;99.90;;;;;;5126374;27;20130;-75
2021/12/14 05:23:25;;;;;;;21.30;13.93;;;9.10;99.90;;;;;;5120607;27;20081;-74
2021/12/14 05:25:51;;;;;;;23.30;14.43;;;9.10;99.90;;;;;;5139641;27;20078;-74
2021/12/14 05:28:19;;;;;;;24.58;15.50;;;9.10;99.90;;;;;;5140503;27;20121;-74
2021/12/14 05:30:47;;;;;;;18.98;14.43;;;9.10;99.90;;;;;;5139448;27;20141;-73
2021/12/14 05:33:28;;;;;;;18.13;15.13;;;9.10;99.90;;;;;;5121782;27;20066;-74
2021/12/14 05:35:57;;;;;;;25.40;15.88;;;9.10;99.90;;;;;;5121486;27;20539;-74
2021/12/14 05:38:39;;;;;;;28.48;16.58;;;9.10;99.90;;;;;;5140085;27;20058;-74
2021/12/14 05:43:05;;;;;;;26.58;17.08;;;9.00;99.90;;;;;;5120405;27;20860;-74
2021/12/14 05:43:56;;;;;;;25.98;17.30;;;9.00;99.90;;;;;;5135266;27;20500;-75
2021/12/14 05:46:23;;;;;;;27.27;15.88;;;9.00;99.90;;;;;;5139226;27;20137;-75
2021/12/14 05:48:56;;;;;;;26.52;15.65;;;9.00;99.90;;;;;;5139647;27;20062;-75
2021/12/14 05:51:22;;;;;;;26.88;16.67;;;9.00;99.90;;;;;;5120980;27;20059;-74
2021/12/14 05:53:48;;;;;;;26.33;17.73;;;9.00;99.90;;;;;;5120926;27;20763;-74
2021/12/14 05:56:17;;;;;;;26.65;18.13;;;9.00;99.90;;;;;;5140086;27;20047;-75
2021/12/14 05:58:44;;;;;;;24.10;16.25;;;9.00;99.90;;;;;;5139793;27;20051;-74
2021/12/14 06:01:15;;;;;;;27.52;17.05;;;9.00;99.90;;;;;;5139377;27;20046;-75
2021/12/14 06:03:53;;;;;;;24.95;15.55;;;9.00;99.90;;;;;;5121371;27;20046;-75
2021/12/14 06:06:41;;;;;;;29.88;16.80;;;9.00;99.90;;;;;;5139833;27;20054;-73
2021/12/14 06:09:11;;;;;;;24.20;17.27;;;9.00;99.90;;;;;;5138739;27;20167;-74
2021/12/14 06:11:37;;;;;;;25.27;16.58;;;9.00;99.90;;;;;;5139870;27;20138;-74
2021/12/14 06:14:04;;;;;;;26.55;16.42;;;9.00;99.90;;;;;;5139553;27;20046;-74
2021/12/14 06:16:35;;;;;;;26.98;18.63;;;8.90;99.90;;;;;;5140102;27;20114;-73
2021/12/14 06:19:22;;;;;;;28.08;17.00;;;9.00;99.90;;;;;;5139929;27;20058;-73
2021/12/14 06:22:05;;;;;;;24.65;16.08;;;9.00;99.90;;;;;;5146947;27;20841;-74
2021/12/14 06:24:34;;;;;;;32.05;17.90;;;8.90;99.90;;;;;;5143431;27;20580;-73
2021/12/14 06:27:04;;;;;;;26.65;17.38;;;8.90;99.90;;;;;;5124555;27;20130;-73
2021/12/14 06:29:37;;;;;;;31.02;18.17;;;8.90;99.90;;;;;;5142903;27;20050;-73
2021/12/14 06:32:11;;;;;;;;;;;8.90;99.90;;;;;;5143769;27;20696;-73
2021/12/14 06:34:38;;;;;;;;;;;8.90;99.90;;;;;;5143610;27;19923;-73
2021/12/14 06:37:27;;;;;;;25.63;16.27;;;8.90;99.90;;;;;;5124422;27;19923;-73
2021/12/14 06:40:05;;;;;;;28.60;18.05;;;8.90;99.90;;;;;;5123743;27;20124;-74
2021/12/14 06:42:31;;;;;;;28.38;17.60;;;8.90;99.90;;;;;;5142608;27;20150;-74
2021/12/14 06:45:08;;;;;;;25.10;16.20;;;8.90;99.90;;;;;;5124534;27;20042;-75
2021/12/14 06:47:34;;;;;;;29.92;18.90;;;8.90;99.90;;;;;;5143132;27;20061;-74
2021/12/14 06:50:04;;;;;;;29.00;18.30;;;8.90;99.90;;;;;;5142430;27;20035;-74
2021/12/14 06:52:29;;;;;;;29.73;17.25;;;9.00;99.90;;;;;;5142774;27;20050;-74
2021/12/14 06:54:55;;;;;;;26.95;17.65;;;9.00;99.90;;;;;;5142458;27;20045;-75
2021/12/14 06:57:21;;;;;;;25.92;17.60;;;8.90;99.90;;;;;;5142376;27;20055;-74
2021/12/14 06:59:47;;;;;;;26.45;18.25;;;9.00;99.90;;;;;;5142621;27;20031;-75
2021/12/14 07:02:13;;;;;;;31.80;18.88;;;9.00;99.90;;;;;;5142129;27;20046;-74
2021/12/14 07:04:47;;;;;;;24.83;16.92;;;9.00;99.90;;;;;;5122141;27;20445;-74
2021/12/14 07:07:17;;;;;;;24.45;15.45;;;9.00;99.90;;;;;;5137817;27;20046;-74
2021/12/14 07:09:45;;;;;;;30.48;20.17;;;9.00;99.90;;;;;;5118929;27;20059;-74
2021/12/14 07:12:20;;;;;;;31.15;19.73;;;9.00;99.90;;;;;;5139109;27;20774;-73
2021/12/14 07:14:49;;;;;;;26.95;17.40;;;9.00;99.90;;;;;;5139196;27;20038;-74
2021/12/14 07:17:25;;;;;;;31.25;18.80;;;9.00;99.90;;;;;;5139800;27;20099;-74
2021/12/14 07:20:00;;;;;;;32.08;19.42;;;9.00;99.90;;;;;;5138215;27;20039;-74
2021/12/14 07:22:27;;;;;;;31.60;19.05;;;9.00;99.90;;;;;;5118118;27;20053;-73
2021/12/14 07:24:59;;;;;;;34.70;20.73;;;8.90;99.90;;;;;;5138720;27;20043;-73
2021/12/14 07:27:27;;;;;;;35.05;20.65;;;8.90;99.90;;;;;;5137090;27;20058;-73
2021/12/14 07:30:14;;;;;;;32.42;21.65;;;8.90;99.90;;;;;;5138369;27;20043;-73
2021/12/14 07:32:48;;;;;;;36.65;22.00;;;8.90;99.90;;;;;;5137614;27;20046;-74
2021/12/14 07:35:31;;;;;;;34.78;21.75;;;8.90;99.90;;;;;;5139329;27;20047;-74
2021/12/14 07:38:01;;;;;;;38.35;23.40;;;8.90;99.90;;;;;;5138117;27;20173;-74
2021/12/14 07:40:36;;;;;;;35.33;20.77;;;8.90;99.90;;;;;;5119379;27;20054;-74
2021/12/14 07:43:08;;;;;;;31.65;20.83;;;9.00;99.90;;;;;;5135923;27;20063;-74
2021/12/14 07:45:34;;;;;;;29.00;20.23;;;8.90;99.90;;;;;;5138382;27;20042;-74
2021/12/14 07:47:59;;;;;;;33.78;21.52;;;8.90;99.90;;;;;;5120164;27;20050;-74
2021/12/14 07:50:51;;;;;;;40.30;20.33;;;8.90;99.90;;;;;;5138512;27;20043;-75
2021/12/14 07:53:33;;;;;;;34.70;22.45;;;8.90;99.90;;;;;;5138657;27;20103;-74
2021/12/14 07:55:59;;;;;;;30.10;19.70;;;8.90;99.90;;;;;;5138815;27;20129;-73
2021/12/14 07:58:47;;;;;;;35.53;21.60;;;8.90;99.90;;;;;;5120003;27;20081;-74
2021/12/14 08:01:13;;;;;;;37.30;23.10;;;8.90;99.90;;;;;;5137543;27;20055;-74
2021/12/14 08:03:39;;;;;;;33.40;20.73;;;8.90;99.90;;;;;;5141037;27;20831;-71
2021/12/14 08:06:10;;;;;;;32.05;20.30;;;9.00;99.90;;;;;;5122183;27;20069;-72
2021/12/14 08:08:44;;;;;;;34.25;21.98;;;9.00;99.90;;;;;;5121408;27;20867;-71
2021/12/14 08:11:47;;;;;;;36.65;23.02;;;9.00;99.90;;;;;;5137745;27;20046;-72
2021/12/14 08:14:24;;;;;;;31.37;21.93;;;9.00;99.90;;;;;;5136615;27;20035;-69
2021/12/14 08:16:58;;;;;;;39.70;21.58;;;9.00;99.90;;;;;;5137504;27;20748;-72
2021/12/14 08:19:51;;;;;;;41.53;22.73;;;9.00;99.90;;;;;;5119142;27;20106;-74
2021/12/14 08:22:35;;;;;;;36.67;22.58;;;9.00;99.90;;;;;;5139247;27;20061;-74
2021/12/14 08:25:01;;;;;;;;;;;9.00;99.90;;;;;;5137809;27;20130;-74
2021/12/14 08:27:29;;;;;;;39.38;22.15;;;9.00;99.90;;;;;;5137743;27;19976;-74
2021/12/14 08:29:58;;;;;;;44.20;25.13;;;9.00;99.90;;;;;;5136379;27;20709;-74
2021/12/14 08:32:31;;;;;;;38.25;21.73;;;9.10;99.90;;;;;;5132709;27;20045;-74
2021/12/14 08:35:00;;;;;;;36.13;21.88;;;9.10;99.90;;;;;;5135511;27;20074;-74
2021/12/14 08:37:32;;;;;;;37.08;22.75;;;9.10;99.90;;;;;;5117294;27;20031;-74
2021/12/14 08:40:03;;;;;;;34.22;23.38;;;9.10;99.90;;;;;;5137700;27;20118;-73
2021/12/14 08:42:51;;;;;;;37.75;21.95;;;9.10;99.90;;;;;;5116502;27;20078;-73
2021/12/14 08:45:25;;;;;;;38.45;23.48;;;9.20;99.90;;;;;;5131513;27;20769;-73
2021/12/14 08:48:15;;;;;;;37.85;20.85;;;9.10;99.90;;;;;;5135727;27;20134;-74
2021/12/14 08:50:56;;;;;;;38.80;22.85;;;9.10;99.90;;;;;;5135566;27;20042;-74
2021/12/14 08:53:24;;;;;;;42.30;23.55;;;9.10;99.90;;;;;;5134952;27;20043;-73
2021/12/14 08:55:54;;;;;;;36.35;23.85;;;9.20;99.90;;;;;;5128804;27;20533;-73
2021/12/14 08:58:20;;;;;;;36.67;25.67;;;9.20;99.90;;;;;;5119687;27;20053;-73
2021/12/14 09:00:51;;;;;;;40.10;23.90;;;9.20;99.90;;;;;;5138715;27;20056;-67
2021/12/14 09:03:31;;;;;;;41.85;24.50;;;9.20;99.90;;;;;;5138382;27;20035;-74
2021/12/14 09:05:59;;;;;;;37.33;23.95;;;9.10;99.90;;;;;;5134836;27;20043;-73
2021/12/14 09:08:25;;;;;;;36.97;22.80;;;9.20;99.90;;;;;;5135768;27;20144;-73
2021/12/14 09:10:53;;;;;;;40.10;23.33;;;9.20;99.90;;;;;;5136457;27;20392;-74
2021/12/14 09:13:19;;;;;;;36.28;23.25;;;9.20;99.90;;;;;;5138375;27;20046;-74
2021/12/14 09:16:01;;;;;;;38.90;23.40;;;9.20;99.90;;;;;;5119158;27;20051;-74
2021/12/14 09:18:30;;;;;;;44.55;22.58;;;9.30;99.90;;;;;;5138123;27;20152;-74
2021/12/14 09:21:02;;;;;;;36.17;23.98;;;9.20;99.90;;;;;;5142623;27;20038;-75
2021/12/14 09:23:35;;;;;;;37.90;22.95;;;9.30;99.90;;;;;;5139469;27;20739;-74
2021/12/14 09:26:03;;;;;;;39.27;23.07;;;9.30;99.90;;;;;;5139506;27;20051;-74
2021/12/14 09:28:30;;;;;;;40.55;20.85;;;9.30;99.90;;;;;;5139500;27;20066;-75
2021/12/14 09:31:00;;;;;;;41.47;25.95;;;9.30;99.90;;;;;;5119830;27;20057;-75
2021/12/14 09:33:28;;;;;;;40.20;23.90;;;9.30;99.90;;;;;;5139317;27;20402;-75
2021/12/14 09:35:56;;;;;;;36.97;22.52;;;9.30;99.90;;;;;;5139429;27;20047;-74
2021/12/14 09:38:31;;;;;;;40.03;23.02;;;9.30;99.90;;;;;;5139378;27;20078;-74
2021/12/14 09:40:58;;;;;;;36.72;23.77;;;9.40;99.90;;;;;;5143007;27;20049;-74
2021/12/14 09:43:24;;;;;;;42.92;24.42;;;9.40;99.90;;;;;;5140133;27;20413;-75
2021/12/14 09:45:55;;;;;;;35.20;22.17;;;9.40;99.90;;;;;;5139549;27;20103;-74
2021/12/14 09:48:27;;;;;;;40.10;23.33;;;9.50;99.90;;;;;;5140111;27;20230;-75
2021/12/14 09:50:55;;;;;;;39.40;22.38;;;9.50;99.90;;;;;;5139741;27;20998;-74
2021/12/14 09:53:24;;;;;;;41.53;27.35;;;9.50;99.90;;;;;;5139286;27;20174;-74
2021/12/14 09:55:52;;;;;;;41.63;25.92;;;9.50;99.90;;;;;;5123665;27;20135;-75
2021/12/14 09:58:33;;;;;;;40.17;23.77;;;9.60;99.90;;;;;;5143333;27;20101;-75
2021/12/14 10:01:16;;;;;;;39.92;24.05;;;9.60;99.90;;;;;;5142938;27;20082;-75
2021/12/14 10:03:46;;;;;;;39.35;22.92;;;9.60;99.90;;;;;;5143854;27;20135;-75
2021/12/14 10:06:15;;;;;;;41.20;23.85;;;9.60;99.90;;;;;;5124658;27;20115;-75
2021/12/14 10:08:52;;;;;;;38.75;23.00;;;9.60;99.90;;;;;;5143260;27;20146;-75
2021/12/14 10:11:26;;;;;;;39.35;21.58;;;9.60;99.90;;;;;;5143341;27;20054;-75
2021/12/14 10:13:56;;;;;;;34.75;22.20;;;9.50;99.90;;;;;;5124246;27;20049;-75
2021/12/14 10:16:23;;;;;;;38.17;21.83;;;9.60;99.90;;;;;;5143602;27;20054;-75
2021/12/14 10:18:58;;;;;;;40.42;23.98;;;9.50;99.90;;;;;;5143448;27;20046;-75
2021/12/14 10:21:34;;;;;;;35.00;21.40;;;9.60;99.90;;;;;;5127557;27;20077;-75
2021/12/14 10:24:03;;;;;;;37.17;20.60;;;9.60;99.90;;;;;;5124662;27;20059;-75
2021/12/14 10:26:32;;;;;;;35.78;21.90;;;9.60;99.90;;;;;;5143378;27;20774;-75
2021/12/14 10:29:00;;;;;;;34.80;20.63;;;9.60;99.90;;;;;;5123387;27;20051;-75
2021/12/14 10:31:32;;;;;;;36.78;22.17;;;9.60;99.90;;;;;;5142676;27;20051;-75
2021/12/14 10:34:00;;;;;;;34.08;23.33;;;9.60;99.90;;;;;;5142546;27;20047;-75
2021/12/14 10:36:38;;;;;;;33.67;23.02;;;9.60;99.90;;;;;;5142494;27;20134;-75
2021/12/14 10:44:32;;;;;;;31.92;21.15;;;9.60;99.90;;;;;;5142609;27;20127;-75
2021/12/14 10:46:58;;;;;;;34.13;23.38;;;9.60;99.90;;;;;;5123842;27;20120;-75
2021/12/14 10:49:25;;;;;;;31.15;21.42;;;9.60;99.90;;;;;;5142025;27;20042;-75
2021/12/14 10:51:58;;;;;;;33.88;21.25;;;9.60;99.90;;;;;;5142030;27;20111;-75
2021/12/14 10:54:29;;;;;;;30.55;21.05;;;9.60;99.90;;;;;;5142618;27;20050;-75
2021/12/14 10:57:05;;;;;;;37.05;22.30;;;9.60;99.90;;;;;;5141740;27;20062;-75
2021/12/14 10:59:35;;;;;;;30.95;19.75;;;9.60;99.90;;;;;;5142549;27;20089;-75
2021/12/14 11:02:02;;;;;;;33.55;20.73;;;9.70;99.90;;;;;;5123815;27;20047;-75
2021/12/14 11:04:38;;;;;;;28.50;18.33;;;9.70;99.90;;;;;;5142216;27;20035;-75
2021/12/14 11:07:08;;;;;;;31.08;18.83;;;9.70;99.90;;;;;;5141771;27;20042;-75
2021/12/14 11:12:07;;;;;;;32.65;20.10;;;9.70;99.90;;;;;;5142362;27;20054;-75
2021/12/14 11:14:37;;;;;;;29.90;19.98;;;9.70;99.90;;;;;;5123546;27;20054;-75
2021/12/14 11:20:17;;;;;;;28.73;17.98;;;9.70;99.90;;;;;;5141915;27;20047;-75
2021/12/14 11:22:48;;;;;;;24.52;17.30;;;9.70;99.90;;;;;;5122832;27;20834;-75
2021/12/14 11:25:22;;;;;;;27.55;17.20;;;9.70;99.90;;;;;;5123351;27;20050;-75
2021/12/14 11:27:55;;;;;;;29.02;18.70;;;9.70;99.90;;;;;;5142182;27;20043;-75
2021/12/14 11:30:31;;;;;;;28.23;16.88;;;9.70;99.90;;;;;;5141810;27;20059;-75
2021/12/14 11:33:16;;;;;;;25.00;17.10;;;9.70;99.90;;;;;;5123319;27;20072;-74
2021/12/14 11:35:53;;;;;;;26.17;16.42;;;9.70;99.90;;;;;;5141790;27;20133;-76
2021/12/14 11:38:40;;;;;;;29.58;17.58;;;9.70;99.90;;;;;;5141503;27;20047;-75
2021/12/14 11:41:48;;;;;;;29.33;17.75;;;9.70;99.90;;;;;;5141168;27;20050;-75
2021/12/14 11:44:19;;;;;;;28.77;18.50;;;9.70;99.90;;;;;;5076279;28;20144;-75
2021/12/14 11:47:00;;;;;;;25.48;17.65;;;9.80;99.90;;;;;;5113730;27;20081;-75
2021/12/14 11:49:39;;;;;;;32.17;18.42;;;9.80;99.90;;;;;;5140436;27;20157;-75
2021/12/14 11:52:06;;;;;;;29.42;18.88;;;9.70;99.90;;;;;;5121352;27;20051;-75
2021/12/14 11:54:41;;;;;;;30.20;19.67;;;9.80;99.90;;;;;;5140388;27;20047;-75
2021/12/14 11:57:07;;;;;;;29.08;19.20;;;9.70;99.90;;;;;;5140160;27;20747;-75
2021/12/14 11:59:33;;;;;;;28.35;18.50;;;9.80;99.90;;;;;;5139668;27;20046;-75
2021/12/14 12:02:04;;;;;;;29.67;19.25;;;9.70;99.90;;;;;;5139649;27;20049;-75
2021/12/14 12:04:35;;;;;;;27.15;18.55;;;9.70;99.90;;;;;;5140036;27;20054;-75
2021/12/14 12:09:48;;;;;;;26.70;16.63;;;9.70;99.90;;;;;;5140181;27;20695;-75
2021/12/14 12:12:13;;;;;;;30.15;18.23;;;9.80;99.90;;;;;;5122076;27;20862;-75
2021/12/14 12:14:58;;;;;;;26.27;17.95;;;9.70;99.90;;;;;;5121628;27;20047;-75
2021/12/14 12:17:27;;;;;;;33.30;18.85;;;9.70;99.90;;;;;;5140408;27;20485;-75
2021/12/14 12:20:21;;;;;;;32.45;19.27;;;9.70;99.90;;;;;;5139572;27;20821;-75
2021/12/14 12:23:04;;;;;;;28.23;17.08;;;9.80;99.90;;;;;;5133560;27;20557;-75
2021/12/14 12:25:51;;;;;;;25.95;16.73;;;9.80;99.90;;;;;;5121785;27;20046;-75
2021/12/14 12:28:17;;;;;;;25.75;17.42;;;9.80;99.90;;;;;;5140089;27;20053;-75
2021/12/14 12:30:49;;;;;;;28.48;17.42;;;9.80;99.90;;;;;;5140065;27;20046;-75
2021/12/14 12:33:27;;;;;;;28.95;18.10;;;9.70;99.90;;;;;;5139890;27;20370;-74
2021/12/14 12:36:07;;;;;;;27.45;17.65;;;9.70;99.90;;;;;;5139554;27;20071;-75
2021/12/14 12:38:42;;;;;;;25.42;16.58;;;9.80;99.90;;;;;;5139811;27;20085;-75
2021/12/14 12:41:17;;;;;;;27.33;15.88;;;9.70;99.90;;;;;;5120396;27;20050;-75
2021/12/14 12:43:48;;;;;;;29.10;18.00;;;9.70;99.90;;;;;;5121028;27;20055;-75
2021/12/14 12:46:18;;;;;;;27.08;17.92;;;9.80;99.90;;;;;;5140086;27;20124;-75
2021/12/14 12:48:59;;;;;;;24.60;16.85;;;9.80;99.90;;;;;;5139416;27;20061;-75
2021/12/14 12:51:55;;;;;;;28.52;17.95;;;9.80;99.90;;;;;;5139198;27;20054;-75
2021/12/14 12:54:31;;;;;;;30.33;19.13;;;9.80;99.90;;;;;;5120932;27;20117;-75
2021/12/14 12:57:09;;;;;;;26.20;16.25;;;9.80;99.90;;;;;;5138796;27;20158;-74
2021/12/14 12:59:47;;;;;;;29.40;19.23;;;9.80;99.90;;;;;;5138785;27;20051;-75
2021/12/14 13:02:29;;;;;;;30.75;18.83;;;9.90;99.90;;;;;;5138447;27;20829;-75
2021/12/14 13:05:05;;;;;;;35.80;20.17;;;9.80;99.90;;;;;;5138924;27;20623;-76
2021/12/14 13:07:40;;;;;;;30.15;16.17;;;9.90;99.90;;;;;;5120602;27;20057;-76
2021/12/14 13:10:12;;;;;;;29.55;17.23;;;9.90;99.90;;;;;;5119922;27;20058;-76
2021/12/14 13:12:42;;;;;;;26.73;15.55;;;9.80;99.90;;;;;;5120599;27;20143;-75
2021/12/14 13:15:31;;;;;;;30.75;18.45;;;9.80;99.90;;;;;;5120660;27;20138;-75
2021/12/14 13:18:17;;;;;;;26.90;17.23;;;9.80;99.90;;;;;;5119601;27;20051;-74
2021/12/14 13:20:45;;;;;;;29.33;17.43;;;9.90;99.90;;;;;;5122934;27;20641;-77
2021/12/14 13:23:12;;;;;;;27.02;18.67;;;9.90;99.90;;;;;;5120339;27;20330;-79
2021/12/14 13:25:40;;;;;;;28.00;18.77;;;9.90;99.90;;;;;;5139521;27;20210;-80
2021/12/14 13:28:06;;;;;;;26.52;17.65;;;9.90;99.90;;;;;;5120151;27;20051;-81
2021/12/14 13:30:31;;;;;;;29.90;18.33;;;9.90;99.90;;;;;;5143492;27;20845;-81
2021/12/14 13:32:57;;;;;;;33.38;18.60;;;9.90;99.90;;;;;;5143805;27;20046;-82
2021/12/14 13:35:32;;;;;;;23.85;16.63;;;9.90;99.90;;;;;;5143722;27;20039;-81